Time;durP1;ratioP1;P1;durP2;ratioP2;P2;SDS_P1;SDS_P2;PMS_P1;PMS_P2;Temp;Humidity;BMP_temperature;BMP_pressure;BME280_temperature;BME280_humidity;BME280_pressure;Samples;Min_cycle;Max_cycle;Signal;HPM_P1;HPM_P2
2022/02/12 00:00:58;;;;;;;13.38;6.45;;;;;;;1.88;69.21;98222.52;1659069;86;25792;-83
2022/02/12 00:03:25;;;;;;;12.50;6.60;;;;;;;1.91;69.21;98233.40;1658649;86;27568;-82
2022/02/12 00:05:51;;;;;;;14.95;6.95;;;;;;;1.93;69.15;98229.62;1657889;85;25988;-82
2022/02/12 00:08:18;;;;;;;10.78;6.55;;;;;;;1.89;69.12;98234.02;1657996;85;25801;-82
2022/02/12 00:10:45;;;;;;;13.38;7.00;;;;;;;1.84;69.15;98225.59;1657695;86;25827;-81
2022/02/12 00:13:12;;;;;;;12.73;6.90;;;;;;;1.84;69.20;98222.44;1658040;86;25739;-81
2022/02/12 00:15:42;;;;;;;12.78;7.50;;;;;;;1.85;69.10;98223.28;1658003;86;27556;-82
2022/02/12 00:18:10;;;;;;;14.58;7.37;;;;;;;1.84;69.12;98230.91;1657558;86;25820;-82
2022/02/12 00:20:38;;;;;;;15.35;8.05;;;;;;;1.84;69.15;98236.23;1656594;85;25904;-81
2022/02/12 00:23:04;;;;;;;11.75;7.35;;;;;;;1.86;69.07;98241.78;1656729;86;25955;-82
2022/02/12 00:25:31;;;;;;;13.08;8.00;;;;;;;1.89;69.08;98242.00;1658155;86;25778;-82
2022/02/12 00:27:58;;;;;;;18.67;8.38;;;;;;;1.91;69.04;98250.70;1662091;86;27440;-83
2022/02/12 00:30:24;;;;;;;18.45;8.35;;;;;;;1.87;68.93;98245.29;1662032;86;25911;-82
2022/02/12 00:32:51;;;;;;;15.18;8.48;;;;;;;1.80;69.06;98253.84;1662134;86;26372;-83
2022/02/12 00:35:17;;;;;;;18.10;10.53;;;;;;;1.77;69.08;98255.43;1661883;86;26564;-81
2022/02/12 00:37:44;;;;;;;16.25;9.63;;;;;;;1.80;69.25;98259.16;1662143;86;25779;-83
2022/02/12 00:40:11;;;;;;;18.27;9.40;;;;;;;1.83;69.30;98258.51;1662151;86;27270;-86
2022/02/12 00:42:38;;;;;;;13.62;9.03;;;;;;;1.84;69.25;98262.86;1662120;86;25795;-81
2022/02/12 00:45:06;;;;;;;19.82;9.25;;;;;;;1.78;69.32;98270.42;1662214;86;25805;-82
2022/02/12 00:47:34;;;;;;;16.05;8.95;;;;;;;1.75;69.26;98272.02;1661902;85;26404;-82
2022/02/12 00:50:02;;;;;;;18.77;9.65;;;;;;;1.74;69.35;98274.81;1662187;85;25706;-82
2022/02/12 00:52:29;;;;;;;19.87;9.90;;;;;;;1.72;69.37;98283.42;1662099;86;27457;-82
2022/02/12 00:54:55;;;;;;;18.75;10.13;;;;;;;1.65;69.41;98285.79;1662096;85;25993;-81
2022/02/12 00:57:22;;;;;;;18.10;9.60;;;;;;;1.61;69.39;98285.69;1661941;86;25748;-82
2022/02/12 00:59:49;;;;;;;19.45;10.23;;;;;;;1.61;69.49;98289.69;1662086;86;25776;-82
2022/02/12 01:02:15;;;;;;;20.25;10.15;;;;;;;1.59;69.54;98287.64;1662139;86;25875;-83
2022/02/12 01:04:42;;;;;;;15.98;10.55;;;;;;;1.58;69.57;98292.60;1662099;86;27611;-82
2022/02/12 01:07:08;;;;;;;18.98;10.72;;;;;;;1.56;69.49;98294.58;1661956;86;25293;-82
2022/02/12 01:09:37;;;;;;;19.37;10.25;;;;;;;1.50;69.56;98289.77;1662160;86;25806;-85
2022/02/12 01:12:06;;;;;;;18.57;9.75;;;;;;;1.44;69.51;98289.84;1662103;85;25693;-82
2022/02/12 01:14:33;;;;;;;19.57;11.25;;;;;;;1.42;69.70;98293.11;1662122;86;25949;-81
2022/02/12 01:16:59;;;;;;;19.98;10.05;;;;;;;1.43;69.86;98296.62;1662135;85;27457;-81
2022/02/12 01:19:27;;;;;;;21.17;11.15;;;;;;;1.38;69.75;98293.50;1643689;86;26253;-81
2022/02/12 01:21:53;;;;;;;18.92;10.70;;;;;;;1.44;69.86;98292.50;1636148;87;25843;-82
2022/02/12 01:24:20;;;;;;;18.37;10.10;;;;;;;1.49;69.85;98289.42;1636057;86;25977;-82
2022/02/12 01:26:48;;;;;;;18.85;10.88;;;;;;;1.50;69.83;98292.92;1636008;87;25772;-82
2022/02/12 01:29:15;;;;;;;16.90;10.03;;;;;;;1.48;69.82;98293.05;1636164;86;28149;-82
2022/02/12 01:31:43;;;;;;;19.48;9.80;;;;;;;1.52;69.77;98293.16;1635998;87;25885;-83
2022/02/12 01:34:10;;;;;;;21.50;11.75;;;;;;;1.55;69.77;98291.56;1636022;87;25819;-79
2022/02/12 01:36:36;;;;;;;20.20;10.45;;;;;;;1.59;69.79;98298.77;1635721;87;25757;-79
2022/02/12 01:39:04;;;;;;;19.20;10.08;;;;;;;1.55;69.69;98294.23;1636086;87;25792;-79
2022/02/12 01:41:30;;;;;;;19.98;10.80;;;;;;;1.51;69.70;98298.61;1635849;87;27622;-80
2022/02/12 01:44:10;;;;;;;18.37;10.58;;;;;;;1.50;69.69;98304.41;1636018;87;25882;-80
2022/02/12 01:46:38;;;;;;;20.90;11.35;;;;;;;1.51;69.78;98314.08;1636041;87;25760;-80
2022/02/12 01:49:04;;;;;;;19.50;11.10;;;;;;;1.53;69.81;98308.14;1635832;87;26438;-79
2022/02/12 01:51:32;;;;;;;24.12;12.03;;;;;;;1.57;69.77;98312.20;1636140;87;25708;-79
2022/02/12 01:53:59;;;;;;;19.70;11.63;;;;;;;1.58;69.74;98301.92;1636094;87;27466;-79
2022/02/12 01:56:26;;;;;;;21.90;11.08;;;;;;;1.59;69.74;98308.92;1635689;87;25842;-80
2022/02/12 01:58:53;;;;;;;25.43;13.55;;;;;;;1.56;69.86;98313.21;1636115;87;25866;-80
2022/02/12 02:01:20;;;;;;;27.82;14.07;;;;;;;1.57;69.93;98314.05;1636049;87;25924;-80
2022/02/12 02:03:46;;;;;;;26.07;14.18;;;;;;;1.60;69.93;98313.77;1636196;87;25746;-80
2022/02/12 02:06:13;;;;;;;22.07;13.53;;;;;;;1.61;69.93;98316.30;1636300;87;27651;-80
2022/02/12 02:08:41;;;;;;;23.65;12.98;;;;;;;1.54;70.00;98323.63;1636126;87;26330;-81
2022/02/12 02:11:08;;;;;;;27.22;14.87;;;;;;;1.52;70.01;98322.42;1636281;87;25733;-80
2022/02/12 02:13:35;;;;;;;24.50;14.15;;;;;;;1.51;70.18;98326.05;1636177;87;25876;-81
2022/02/12 02:16:02;;;;;;;26.77;14.78;;;;;;;1.49;70.20;98322.68;1636276;87;25804;-80
2022/02/12 02:18:28;;;;;;;26.27;13.58;;;;;;;1.52;70.30;98333.55;1636244;87;27547;-81
2022/02/12 02:20:55;;;;;;;24.23;14.35;;;;;;;1.52;70.30;98329.56;1635157;87;25682;-81
2022/02/12 02:23:21;;;;;;;22.35;13.98;;;;;;;1.53;70.42;98333.42;1635251;87;25824;-81
2022/02/12 02:25:48;;;;;;;24.65;14.45;;;;;;;1.58;70.47;98341.84;1635273;87;25868;-80
2022/02/12 02:28:15;;;;;;;24.82;15.15;;;;;;;1.53;70.43;98341.41;1635072;87;25464;-81
2022/02/12 02:30:42;;;;;;;24.25;14.55;;;;;;;1.51;70.49;98334.04;1635204;87;28358;-81
2022/02/12 02:33:08;;;;;;;26.25;14.43;;;;;;;1.49;70.52;98338.64;1635143;87;25795;-81
2022/02/12 02:35:35;;;;;;;23.02;13.93;;;;;;;1.51;70.61;98334.52;1635240;87;25833;-81
2022/02/12 02:38:11;;;;;;;26.23;14.45;;;;;;;1.50;70.61;98335.01;1635198;87;26455;-80
2022/02/12 02:40:37;;;;;;;29.92;14.98;;;;;;;1.53;70.56;98337.41;1634949;87;25799;-81
2022/02/12 02:43:05;;;;;;;21.30;13.72;;;;;;;1.53;70.62;98339.23;1635225;87;27479;-81
2022/02/12 02:45:32;;;;;;;25.90;15.00;;;;;;;1.54;70.69;98342.25;1635146;87;26289;-81
2022/02/12 02:48:01;;;;;;;25.15;13.95;;;;;;;1.57;70.70;98352.13;1635242;87;25289;-81
2022/02/12 02:56:01;;;;;;;26.73;14.30;;;;;;;1.71;70.55;98362.42;1634952;87;27529;-81
2022/02/12 02:58:31;;;;;;;22.62;13.40;;;;;;;1.74;70.43;98371.48;1635024;87;25350;-81
2022/02/12 03:00:58;;;;;;;23.00;12.63;;;;;;;1.75;70.22;98369.18;1635249;87;25715;-80
2022/02/12 03:03:25;;;;;;;19.95;12.28;;;;;;;1.68;70.21;98378.69;1635196;87;25752;-81
2022/02/12 03:05:51;;;;;;;20.05;12.60;;;;;;;1.67;70.26;98382.80;1635290;87;26295;-81
2022/02/12 03:08:18;;;;;;;25.27;13.58;;;;;;;1.66;70.20;98387.77;1635260;87;27558;-81
2022/02/12 03:10:45;;;;;;;21.55;12.18;;;;;;;1.66;70.32;98377.97;1635133;87;25863;-81
2022/02/12 03:13:11;;;;;;;19.57;11.28;;;;;;;1.70;70.32;98383.36;1635198;87;25435;-84
2022/02/12 03:15:40;;;;;;;18.30;10.20;;;;;;;1.67;70.13;98379.66;1635184;87;25807;-80
2022/02/12 03:18:07;;;;;;;26.85;12.00;;;;;;;1.65;70.12;98388.25;1635255;87;25796;-80
2022/02/12 03:20:34;;;;;;;18.77;11.10;;;;;;;1.68;70.16;98397.31;1635048;87;28503;-81
2022/02/12 03:23:01;;;;;;;24.55;12.25;;;;;;;1.65;70.08;98400.23;1634904;86;25787;-80
2022/02/12 03:25:28;;;;;;;22.17;12.23;;;;;;;1.64;70.18;98397.21;1635226;87;25843;-81
2022/02/12 03:28:00;;;;;;;22.13;11.50;;;;;;;1.64;70.30;98405.68;1635149;87;25922;-81
2022/02/12 03:30:35;;;;;;;21.10;11.73;;;;;;;1.69;70.35;98413.61;1635355;87;25817;-81
2022/02/12 03:33:01;;;;;;;18.25;11.78;;;;;;;1.73;70.32;98410.20;1625921;88;27386;-80
2022/02/12 03:35:28;;;;;;;20.77;10.72;;;;;;;1.76;70.23;98417.45;1654051;86;25728;-80
2022/02/12 03:38:07;;;;;;;20.00;10.75;;;;;;;1.79;70.27;98421.67;1635219;87;25823;-80
2022/02/12 03:40:36;;;;;;;18.17;10.00;;;;;;;1.77;70.23;98413.82;1635284;87;25900;-80
2022/02/12 03:43:04;;;;;;;18.30;10.65;;;;;;;1.79;70.30;98409.70;1635163;87;26415;-81
2022/02/12 03:45:31;;;;;;;19.37;10.75;;;;;;;1.78;70.29;98420.83;1635203;87;27383;-80
2022/02/12 03:47:58;;;;;;;17.77;9.88;;;;;;;1.75;70.17;98413.59;1635138;87;25707;-81
2022/02/12 03:50:25;;;;;;;18.20;10.72;;;;;;;1.74;70.15;98420.73;1635128;87;25711;-80
2022/02/12 03:52:51;;;;;;;16.05;10.88;;;;;;;1.73;70.23;98420.38;1635224;87;26427;-80
2022/02/12 03:55:18;;;;;;;18.82;12.43;;;;;;;1.72;70.16;98424.00;1635243;87;25836;-79
2022/02/12 03:57:45;;;;;;;20.27;12.30;;;;;;;1.71;70.20;98418.80;1635191;87;28403;-80
2022/02/12 04:00:13;;;;;;;25.08;13.20;;;;;;;1.66;70.31;98424.55;1635092;87;25851;-80
2022/02/12 04:02:41;;;;;;;21.27;12.95;;;;;;;1.61;70.34;98430.73;1635236;87;25753;-81
2022/02/12 04:05:14;;;;;;;19.00;12.70;;;;;;;1.61;70.42;98437.87;1635180;87;26508;-80
2022/02/12 04:07:43;;;;;;;20.80;13.25;;;;;;;1.59;70.54;98441.98;1635244;87;25763;-81
2022/02/12 04:10:13;;;;;;;19.65;12.63;;;;;;;1.58;70.62;98444.29;1634958;87;28117;-81
2022/02/12 04:12:40;;;;;;;22.85;14.30;;;;;;;1.58;70.77;98449.61;1635079;87;25732;-80
2022/02/12 04:15:10;;;;;;;23.20;13.95;;;;;;;1.53;70.76;98468.29;1635198;87;26272;-81
2022/02/12 04:17:37;;;;;;;23.00;14.05;;;;;;;1.51;70.91;98472.41;1634743;87;25776;-80
2022/02/12 04:20:12;;;;;;;19.85;14.05;;;;;;;1.45;71.04;98476.89;1635097;87;25267;-85
2022/02/12 04:22:39;;;;;;;21.70;13.10;;;;;;;1.42;71.12;98482.01;1636071;86;27491;-85
2022/02/12 04:25:10;;;;;;;24.63;14.35;;;;;;;1.39;71.24;98470.77;1636031;87;25803;-81
2022/02/12 04:27:37;;;;;;;23.92;14.33;;;;;;;1.37;71.56;98472.70;1636071;87;26455;-80
2022/02/12 04:30:05;;;;;;;23.62;15.05;;;;;;;1.43;71.84;98476.20;1636080;87;25756;-80
2022/02/12 04:32:32;;;;;;;24.72;15.58;;;;;;;1.43;71.74;98489.02;1636138;87;25713;-82
2022/02/12 04:35:02;;;;;;;24.90;15.53;;;;;;;1.44;71.74;98489.88;1635811;87;27619;-80
2022/02/12 04:37:30;;;;;;;24.67;14.35;;;;;;;1.37;71.66;98480.69;1635804;87;25297;-80
2022/02/12 04:39:56;;;;;;;22.77;14.90;;;;;;;1.30;71.70;98486.17;1635946;87;25357;-80
2022/02/12 04:42:23;;;;;;;25.72;13.50;;;;;;;1.29;71.70;98497.30;1636058;87;26449;-81
2022/02/12 04:44:52;;;;;;;24.15;14.15;;;;;;;1.20;71.68;98511.36;1636107;87;25724;-80
2022/02/12 04:47:20;;;;;;;24.75;14.15;;;;;;;1.13;71.66;98505.33;1636089;87;27614;-81
2022/02/12 04:49:49;;;;;;;19.12;12.55;;;;;;;1.11;71.60;98512.58;1635011;86;25898;-80
2022/02/12 04:52:18;;;;;;;20.62;13.65;;;;;;;1.06;71.49;98526.27;1636070;87;25798;-81
2022/02/12 04:54:45;;;;;;;19.55;12.93;;;;;;;1.03;71.55;98523.37;1636085;87;26437;-81
2022/02/12 04:57:12;;;;;;;20.30;13.28;;;;;;;1.02;71.64;98533.64;1636099;87;25714;-80
2022/02/12 04:59:39;;;;;;;22.80;13.65;;;;;;;1.01;71.45;98545.24;1635825;87;28272;-80
2022/02/12 05:02:06;;;;;;;17.20;11.85;;;;;;;0.95;71.35;98540.44;1635903;87;25854;-80
2022/02/12 05:04:33;;;;;;;20.68;12.13;;;;;;;0.94;71.30;98541.41;1636042;87;25759;-81
2022/02/12 05:07:00;;;;;;;20.72;10.35;;;;;;;0.85;71.22;98543.45;1636072;87;25695;-80
2022/02/12 05:09:27;;;;;;;18.98;11.10;;;;;;;0.73;71.05;98552.40;1636177;86;25713;-81
2022/02/12 05:11:54;;;;;;;21.40;10.40;;;;;;;0.63;71.04;98550.96;1636052;87;27614;-81
2022/02/12 05:14:21;;;;;;;18.50;10.75;;;;;;;0.54;71.07;98542.88;1636050;86;25863;-80
2022/02/12 05:16:47;;;;;;;16.82;12.18;;;;;;;0.45;71.02;98544.94;1636090;87;25822;-80
2022/02/12 05:19:14;;;;;;;15.98;10.45;;;;;;;0.44;71.02;98552.55;1635865;87;26275;-81
2022/02/12 05:21:41;;;;;;;19.62;10.95;;;;;;;0.44;70.83;98565.83;1635792;86;25827;-80
2022/02/12 05:24:08;;;;;;;16.45;10.50;;;;;;;0.42;70.73;98562.44;1635833;87;27284;-81
2022/02/12 05:26:35;;;;;;;22.10;10.58;;;;;;;0.34;70.77;98574.52;1635671;87;25809;-81
2022/02/12 05:29:02;;;;;;;15.48;10.68;;;;;;;0.35;70.68;98571.38;1640235;86;25794;-80
2022/02/12 05:31:29;;;;;;;15.25;9.93;;;;;;;0.33;70.61;98571.50;1662870;86;25822;-82
2022/02/12 05:33:56;;;;;;;14.63;9.90;;;;;;;0.29;70.59;98570.52;1662998;86;25800;-80
2022/02/12 05:36:22;;;;;;;16.35;9.18;;;;;;;0.23;70.66;98585.13;1662808;86;27535;-83
2022/02/12 05:38:49;;;;;;;21.45;10.70;;;;;;;0.21;70.60;98579.56;1662849;86;25762;-81
2022/02/12 05:41:16;;;;;;;17.25;9.93;;;;;;;0.14;70.66;98585.81;1662723;86;25831;-81
2022/02/12 05:43:43;;;;;;;17.60;10.28;;;;;;;0.14;70.60;98591.60;1662932;86;26640;-81
2022/02/12 05:46:13;;;;;;;16.32;9.35;;;;;;;0.09;70.47;98591.13;1662988;86;25772;-84
2022/02/12 05:48:40;;;;;;;18.37;10.05;;;;;;;0.05;70.54;98598.47;1662996;86;27393;-81
2022/02/12 05:51:07;;;;;;;16.95;10.50;;;;;;;0.05;70.56;98598.47;1662230;86;25754;-80
2022/02/12 05:53:34;;;;;;;15.13;9.53;;;;;;;0.03;70.51;98611.01;1663019;86;25679;-80
2022/02/12 05:56:00;;;;;;;19.40;9.23;;;;;;;-0.01;70.31;98614.87;1663004;86;25861;-80
2022/02/12 05:58:27;;;;;;;19.67;9.50;;;;;;;-0.09;70.25;98623.40;1663022;86;25833;-81
2022/02/12 06:00:53;;;;;;;17.02;9.03;;;;;;;-0.16;70.27;98630.62;1663036;86;28336;-81
2022/02/12 06:03:20;;;;;;;19.95;9.85;;;;;;;-0.15;70.41;98630.98;1662994;86;25758;-80
2022/02/12 06:05:46;;;;;;;16.42;8.13;;;;;;;-0.14;70.38;98636.19;1663048;86;25914;-80
2022/02/12 06:08:13;;;;;;;14.00;7.83;;;;;;;-0.17;70.20;98628.92;1662994;86;26373;-80
2022/02/12 06:10:40;;;;;;;14.95;8.38;;;;;;;-0.22;70.02;98631.91;1663038;86;25234;-80
2022/02/12 06:13:06;;;;;;;16.07;8.28;;;;;;;-0.23;70.04;98639.50;1663050;86;27363;-81
2022/02/12 06:15:35;;;;;;;21.15;9.33;;;;;;;-0.28;69.96;98653.61;1662940;86;25861;-80
2022/02/12 06:18:03;;;;;;;11.90;6.50;;;;;;;-0.26;69.94;98658.81;1662616;85;25746;-81
2022/02/12 06:20:31;;;;;;;10.08;6.50;;;;;;;-0.33;69.59;98657.06;1662839;85;25879;-79
2022/02/12 06:22:59;;;;;;;11.70;6.35;;;;;;;-0.38;69.56;98657.42;1661896;85;25246;-80
2022/02/12 06:25:27;;;;;;;15.80;6.87;;;;;;;-0.38;69.38;98667.19;1662120;85;27492;-80
2022/02/12 06:27:54;;;;;;;10.15;6.17;;;;;;;-0.43;69.02;98679.45;1662035;86;25849;-84
2022/02/12 06:30:20;;;;;;;9.65;5.50;;;;;;;-0.44;69.09;98677.75;1662114;85;26344;-81
2022/02/12 06:32:47;;;;;;;12.60;7.35;;;;;;;-0.38;69.05;98675.15;1662175;86;25863;-81
2022/02/12 06:35:14;;;;;;;13.38;6.95;;;;;;;-0.34;69.00;98686.36;1662141;86;25725;-81
2022/02/12 06:37:40;;;;;;;13.05;6.92;;;;;;;-0.34;68.99;98690.34;1661717;86;28334;-81
2022/02/12 06:40:08;;;;;;;10.55;5.80;;;;;;;-0.30;68.93;98701.11;1662000;86;26115;-80
2022/02/12 06:42:35;;;;;;;9.75;5.28;;;;;;;-0.34;68.77;98702.28;1661982;86;25782;-81
2022/02/12 06:45:02;;;;;;;9.13;5.05;;;;;;;-0.40;68.69;98704.44;1661632;86;25898;-81
2022/02/12 06:47:29;;;;;;;8.98;4.97;;;;;;;-0.44;68.50;98705.61;1661910;85;25740;-81
2022/02/12 06:49:55;;;;;;;10.00;5.50;;;;;;;-0.43;68.54;98707.31;1661992;86;27614;-81
2022/02/12 06:52:22;;;;;;;10.05;6.20;;;;;;;-0.37;68.60;98719.30;1661195;86;25686;-81
2022/02/12 06:54:49;;;;;;;11.38;6.17;;;;;;;-0.33;68.49;98721.22;1656851;86;25726;-81
2022/02/12 06:57:15;;;;;;;15.28;6.42;;;;;;;-0.24;68.45;98724.56;1656794;86;25858;-81
2022/02/12 06:59:43;;;;;;;14.63;5.97;;;;;;;-0.13;68.46;98724.14;1661065;86;25765;-80
2022/02/12 07:02:09;;;;;;;13.65;6.45;;;;;;;0.00;68.46;98723.58;1658726;86;27492;-80
2022/02/12 07:04:36;;;;;;;13.00;6.78;;;;;;;0.13;68.43;98731.48;1662126;86;25352;-81
2022/02/12 07:07:03;;;;;;;14.43;7.62;;;;;;;0.20;68.48;98733.22;1662155;86;25857;-81
2022/02/12 07:09:30;;;;;;;16.27;8.90;;;;;;;0.26;68.45;98738.05;1662191;86;26212;-80
2022/02/12 07:11:56;;;;;;;13.05;7.83;;;;;;;0.32;68.50;98737.61;1662127;86;25704;-80
2022/02/12 07:14:24;;;;;;;13.48;7.60;;;;;;;0.32;68.40;98747.75;1662183;85;27588;-80
2022/02/12 07:16:51;;;;;;;10.40;6.55;;;;;;;0.30;68.13;98757.64;1661940;86;25823;-80
2022/02/12 07:19:18;;;;;;;13.98;6.97;;;;;;;0.21;67.75;98768.11;1662111;85;25730;-79
2022/02/12 07:21:45;;;;;;;16.37;7.85;;;;;;;0.19;68.00;98760.25;1661986;85;25718;-80
2022/02/12 07:24:11;;;;;;;17.65;8.05;;;;;;;0.18;68.02;98761.20;1661910;86;25249;-80
2022/02/12 07:26:38;;;;;;;16.05;7.12;;;;;;;0.19;68.12;98762.05;1662173;86;27470;-80
2022/02/12 07:29:05;;;;;;;16.85;6.92;;;;;;;0.15;67.94;98760.09;1662065;86;26074;-80
2022/02/12 07:31:33;;;;;;;12.88;7.25;;;;;;;0.09;67.89;98772.52;1662099;85;25746;-80
2022/02/12 07:34:00;;;;;;;13.00;6.72;;;;;;;0.02;67.90;98768.59;1662191;86;25769;-80
2022/02/12 07:36:27;;;;;;;13.85;7.28;;;;;;;0.03;68.02;98767.64;1662172;86;25921;-80
2022/02/12 07:38:53;;;;;;;14.80;7.55;;;;;;;0.10;68.20;98771.56;1662140;86;27336;-79
2022/02/12 07:41:20;;;;;;;16.50;7.87;;;;;;;0.21;68.19;98768.95;1662077;86;26388;-81
2022/02/12 07:43:47;;;;;;;12.37;7.40;;;;;;;0.27;68.07;98767.16;1662111;86;26374;-80
2022/02/12 07:46:13;;;;;;;17.50;8.35;;;;;;;0.30;67.87;98766.09;1662140;86;25790;-80
2022/02/12 07:48:42;;;;;;;12.65;7.37;;;;;;;0.34;67.93;98773.73;1662164;86;25643;-80
2022/02/12 07:51:09;;;;;;;14.45;7.55;;;;;;;0.39;67.94;98771.19;1662193;86;28640;-80
2022/02/12 07:53:35;;;;;;;11.18;6.40;;;;;;;0.47;67.84;98779.45;1662186;86;25735;-80
2022/02/12 07:56:03;;;;;;;12.00;6.22;;;;;;;0.52;67.49;98781.27;1662046;85;25818;-80
2022/02/12 07:58:29;;;;;;;14.13;5.83;;;;;;;0.56;67.39;98779.60;1662110;86;26420;-80
2022/02/12 08:00:56;;;;;;;11.57;6.10;;;;;;;0.60;67.10;98789.53;1662143;86;25795;-80
2022/02/12 08:03:23;;;;;;;11.78;6.00;;;;;;;0.67;66.89;98792.08;1662210;86;27617;-81
2022/02/12 08:05:49;;;;;;;11.45;5.55;;;;;;;0.71;66.67;98789.56;1658567;85;26455;-80
2022/02/12 08:08:16;;;;;;;12.35;6.45;;;;;;;0.78;66.83;98797.42;1657267;86;25795;-79
2022/02/12 08:13:27;;;;;;;9.20;4.92;;;;;;;0.98;66.46;98802.54;1658428;86;25840;-83
2022/02/12 08:15:54;;;;;;;11.75;5.35;;;;;;;0.96;66.02;98805.34;1657316;86;27435;-80
2022/02/12 08:18:20;;;;;;;9.55;5.28;;;;;;;0.81;65.64;98813.15;1656667;86;25799;-80
2022/02/12 08:20:47;;;;;;;10.72;4.45;;;;;;;0.80;65.71;98819.42;1652688;86;25718;-80
2022/02/12 08:23:17;;;;;;;10.05;4.85;;;;;;;0.85;65.80;98821.23;1656856;86;25798;-80
2022/02/12 08:25:42;;;;;;;6.95;4.10;;;;;;;0.96;65.66;98821.30;1659236;85;25828;-79
2022/02/12 08:28:09;;;;;;;10.80;4.42;;;;;;;1.20;65.54;98828.36;1659053;85;27536;-80
2022/02/12 08:30:36;;;;;;;9.33;3.90;;;;;;;1.42;65.31;98833.23;1657938;86;25744;-80
2022/02/12 08:33:02;;;;;;;11.75;4.42;;;;;;;1.55;64.56;98837.59;1657931;86;25905;-82
2022/02/12 08:35:29;;;;;;;8.28;4.22;;;;;;;1.48;64.44;98845.19;1657953;86;25972;-82
2022/02/12 08:37:56;;;;;;;11.55;3.83;;;;;;;1.47;64.55;98846.16;1657653;86;26353;-82
2022/02/12 08:40:23;;;;;;;8.60;4.42;;;;;;;1.51;64.41;98847.62;1658617;86;27704;-80
2022/02/12 08:42:50;;;;;;;7.25;4.12;;;;;;;1.65;64.26;98850.05;1636337;86;25735;-81
2022/02/12 08:45:17;;;;;;;7.65;4.60;;;;;;;1.83;63.92;98849.55;1636011;87;25799;-81
2022/02/12 08:47:44;;;;;;;9.50;4.25;;;;;;;2.08;63.99;98857.28;1635604;87;25859;-82
2022/02/12 08:50:11;;;;;;;12.58;4.58;;;;;;;2.46;63.97;98855.03;1635324;87;26058;-81
2022/02/12 08:52:41;;;;;;;12.47;5.25;;;;;;;2.70;63.55;98854.84;1635502;87;28063;-82
2022/02/12 08:55:09;;;;;;;13.58;5.30;;;;;;;2.88;62.94;98860.00;1636018;87;25688;-81
2022/02/12 08:57:36;;;;;;;9.78;4.72;;;;;;;3.15;62.83;98863.48;1655129;86;25716;-80
2022/02/12 09:00:10;;;;;;;9.05;4.30;;;;;;;3.15;61.67;98868.81;1658474;86;25739;-80
2022/02/12 09:02:37;;;;;;;5.97;3.80;;;;;;;2.79;61.19;98866.55;1657806;86;26261;-80
2022/02/12 09:05:04;;;;;;;7.92;4.20;;;;;;;2.50;61.63;98871.64;1657711;86;27391;-80
2022/02/12 09:07:31;;;;;;;8.88;4.40;;;;;;;2.49;61.47;98873.45;1658562;86;25776;-81
2022/02/12 09:09:58;;;;;;;10.00;4.55;;;;;;;2.48;61.50;98876.23;1657631;86;25774;-82
2022/02/12 09:12:25;;;;;;;8.60;4.58;;;;;;;2.50;61.27;98876.48;1659192;85;25744;-81
2022/02/12 09:14:52;;;;;;;9.25;4.83;;;;;;;2.49;61.32;98880.11;1662078;86;25723;-83
2022/02/12 09:17:19;;;;;;;10.13;4.22;;;;;;;2.51;61.26;98884.84;1662904;86;27466;-81
2022/02/12 09:19:45;;;;;;;9.05;4.40;;;;;;;2.52;61.16;98891.88;1659959;86;25385;-81
2022/02/12 09:22:12;;;;;;;9.75;4.70;;;;;;;2.37;60.77;98892.25;1657965;85;25775;-81
2022/02/12 09:24:39;;;;;;;8.05;4.78;;;;;;;2.44;61.06;98894.29;1657627;86;25949;-83
2022/02/12 09:27:05;;;;;;;9.10;4.65;;;;;;;2.86;61.21;98886.42;1657921;86;25727;-82
2022/02/12 09:29:32;;;;;;;7.45;4.70;;;;;;;3.36;60.81;98888.86;1658684;86;27406;-81
2022/02/12 09:31:59;;;;;;;14.95;5.80;;;;;;;3.78;60.27;98893.67;1658566;86;26392;-81
2022/02/12 09:34:25;;;;;;;9.13;4.83;;;;;;;4.09;59.70;98899.88;1657977;86;25782;-81
2022/02/12 09:36:52;;;;;;;8.20;4.80;;;;;;;4.32;59.81;98900.52;1658407;86;25680;-81
2022/02/12 09:39:19;;;;;;;6.08;3.90;;;;;;;4.61;59.79;98903.26;1657238;86;25703;-82
2022/02/12 09:41:46;;;;;;;9.23;4.45;;;;;;;4.99;59.18;98902.47;1657903;86;27399;-82
2022/02/12 09:44:12;;;;;;;11.38;4.17;;;;;;;5.17;58.13;98910.17;1657835;86;25754;-81
2022/02/12 09:46:53;;;;;;;9.55;4.33;;;;;;;5.08;57.66;98923.04;1657988;85;25806;-81
2022/02/12 09:49:19;;;;;;;8.65;4.90;;;;;;;5.00;57.11;98916.21;1657965;85;26528;-82
2022/02/12 09:51:46;;;;;;;13.65;5.90;;;;;;;4.76;55.99;98911.74;1657939;86;25820;-81
2022/02/12 09:54:12;;;;;;;13.93;5.92;;;;;;;4.23;55.63;98912.00;1657921;86;27581;-82
2022/02/12 09:56:40;;;;;;;9.00;4.80;;;;;;;3.73;56.18;98917.28;1657838;86;25717;-82
2022/02/12 09:59:07;;;;;;;9.35;4.78;;;;;;;3.86;57.08;98913.91;1657976;86;25807;-85
2022/02/12 10:01:40;;;;;;;10.75;4.72;;;;;;;4.10;56.39;98908.75;1657979;86;25724;-80
2022/02/12 10:04:25;;;;;;;8.15;3.92;;;;;;;4.29;56.88;98908.80;1658043;86;26283;-82
2022/02/12 10:06:51;;;;;;;3.87;2.42;;;;;;;4.86;56.69;98900.56;1657878;86;27412;-81
2022/02/12 10:09:18;;;;;;;4.83;2.52;;;;;;;5.33;55.36;98899.72;1657772;86;25278;-81
2022/02/12 10:11:48;;;;;;;6.58;2.85;;;;;;;5.65;54.94;98895.89;1657934;86;25696;-82
2022/02/12 10:14:26;;;;;;;6.20;2.47;;;;;;;5.93;52.77;98890.12;1657460;86;25843;-81
2022/02/12 10:16:58;;;;;;;5.03;2.67;;;;;;;6.07;53.01;98888.31;1657485;86;25847;-81
2022/02/12 10:19:32;;;;;;;6.70;3.37;;;;;;;6.39;52.62;98876.69;1658024;85;27376;-81
2022/02/12 10:22:18;;;;;;;8.38;4.00;;;;;;;6.65;52.83;98883.99;1657417;86;25906;-81
2022/02/12 10:24:51;;;;;;;7.05;4.08;;;;;;;6.96;52.58;98882.66;1656674;85;25731;-81
2022/02/12 10:27:26;;;;;;;6.15;3.80;;;;;;;7.30;52.75;98871.22;1656716;86;25741;-81
2022/02/12 10:29:55;;;;;;;8.48;4.55;;;;;;;7.63;52.47;98870.97;1656978;86;25727;-81
2022/02/12 10:32:25;;;;;;;7.08;4.87;;;;;;;7.83;51.59;98871.13;1656666;86;27490;-82
2022/02/12 10:34:54;;;;;;;6.90;4.50;;;;;;;7.90;51.13;98868.97;1656782;86;25678;-81
2022/02/12 10:37:23;;;;;;;7.25;3.83;;;;;;;8.07;49.69;98873.95;1656071;86;25703;-81
2022/02/12 10:40:00;;;;;;;7.97;3.67;;;;;;;7.82;47.32;98870.28;1657673;86;26080;-82
2022/02/12 10:42:29;;;;;;;7.15;3.42;;;;;;;7.42;47.49;98850.67;1656837;86;26325;-81
2022/02/12 10:44:56;;;;;;;8.98;4.25;;;;;;;7.53;49.18;98855.79;1656848;86;27384;-80
2022/02/12 10:47:24;;;;;;;4.55;3.12;;;;;;;7.73;48.96;98858.30;1656763;86;25824;-82
2022/02/12 10:49:52;;;;;;;6.92;4.15;;;;;;;8.08;48.79;98858.66;1656879;86;25777;-81
2022/02/12 10:52:20;;;;;;;5.87;3.83;;;;;;;8.26;48.34;98856.72;1656725;86;25741;-81
2022/02/12 10:54:50;;;;;;;6.92;4.15;;;;;;;8.64;48.35;98850.84;1657522;86;26448;-87
2022/02/12 10:57:28;;;;;;;7.50;4.60;;;;;;;8.92;48.29;98846.03;1656559;86;27378;-82
2022/02/12 10:59:49;;;;;;;8.40;4.75;;;;;;;9.00;47.83;98837.11;1655392;85;25854;-84
2022/02/12 11:02:19;;;;;;;8.63;4.70;;;;;;;8.95;48.05;98843.48;1653779;86;25741;-80
2022/02/12 11:04:53;;;;;;;7.50;4.45;;;;;;;9.46;48.11;98838.80;1656839;86;26270;-80
2022/02/12 11:07:20;;;;;;;8.75;4.37;;;;;;;9.85;47.10;98835.72;1657617;86;25831;-81
2022/02/12 11:09:47;;;;;;;8.30;4.15;;;;;;;10.12;47.13;98842.56;1656813;86;27361;-80
2022/02/12 11:12:16;;;;;;;14.43;8.35;;;;;;;10.39;46.19;98825.94;1656758;86;25707;-80
2022/02/12 11:14:47;;;;;;;15.95;9.15;;;;;;;10.67;46.19;98825.47;1656777;86;25824;-80
2022/02/12 11:17:22;;;;;;;18.87;11.63;;;;;;;10.82;45.40;98818.30;1656813;86;25747;-83
2022/02/12 11:19:52;;;;;;;15.05;7.85;;;;;;;10.97;45.54;98815.67;1656764;85;25698;-82
2022/02/12 11:22:19;;;;;;;10.28;6.45;;;;;;;11.33;45.29;98821.30;1656812;86;28346;-81
2022/02/12 11:24:47;;;;;;;9.23;5.30;;;;;;;11.51;44.51;98819.09;1659426;86;25815;-82
2022/02/12 11:27:24;;;;;;;9.28;6.03;;;;;;;11.49;43.32;98821.14;1659653;86;25788;-83
2022/02/12 11:29:56;;;;;;;14.10;5.87;;;;;;;11.58;43.75;98824.12;1658965;86;25768;-82
2022/02/12 11:32:26;;;;;;;9.13;5.62;;;;;;;11.67;43.35;98824.36;1659803;86;25715;-85
2022/02/12 11:35:09;;;;;;;8.08;5.78;;;;;;;11.77;43.09;98824.97;1659642;86;28229;-81
2022/02/12 11:37:49;;;;;;;9.03;5.58;;;;;;;11.83;42.76;98820.70;1659498;86;25807;-80
2022/02/12 11:40:30;;;;;;;6.90;4.95;;;;;;;12.05;43.01;98830.60;1656468;86;25720;-81
2022/02/12 11:43:04;;;;;;;7.58;5.10;;;;;;;12.30;42.27;98831.16;1659685;86;25836;-80